sensor_id;sensor_type;location;lat;lon;timestamp;temperature;humidity
19174;DHT22;9719;49.322;8.536;2023-03-17T00:02:00;8.30;99.90
19174;DHT22;9719;49.322;8.536;2023-03-17T00:07:04;8.30;99.90
19174;DHT22;9719;49.322;8.536;2023-03-17T00:12:09;8.40;99.90
19174;DHT22;9719;49.322;8.536;2023-03-17T00:17:12;8.50;99.90
19174;DHT22;9719;49.322;8.536;2023-03-17T00:22:17;8.50;99.90
19174;DHT22;9719;49.322;8.536;2023-03-17T00:27:22;8.60;99.90
19174;DHT22;9719;49.322;8.536;2023-03-17T00:32:24;8.60;99.90
19174;DHT22;9719;49.322;8.536;2023-03-17T00:37:28;8.60;99.90
19174;DHT22;9719;49.322;8.536;2023-03-17T00:42:30;8.70;99.90
19174;DHT22;9719;49.322;8.536;2023-03-17T00:47:33;8.70;99.90
19174;DHT22;9719;49.322;8.536;2023-03-17T00:52:36;8.70;99.90
19174;DHT22;9719;49.322;8.536;2023-03-17T00:57:38;8.60;99.90
19174;DHT22;9719;49.322;8.536;2023-03-17T01:02:41;8.60;99.90
19174;DHT22;9719;49.322;8.536;2023-03-17T01:07:47;8.70;99.90
19174;DHT22;9719;49.322;8.536;2023-03-17T01:12:53;8.70;99.90
19174;DHT22;9719;49.322;8.536;2023-03-17T01:17:55;8.70;99.90
19174;DHT22;9719;49.322;8.536;2023-03-17T01:22:59;8.70;99.90
19174;DHT22;9719;49.322;8.536;2023-03-17T01:28:02;8.70;99.90
19174;DHT22;9719;49.322;8.536;2023-03-17T01:33:04;8.70;99.90
19174;DHT22;9719;49.322;8.536;2023-03-17T01:38:09;8.70;99.90
19174;DHT22;9719;49.322;8.536;2023-03-17T01:43:20;8.70;99.90
19174;DHT22;9719;49.322;8.536;2023-03-17T01:48:23;8.70;99.90
19174;DHT22;9719;49.322;8.536;2023-03-17T01:53:27;8.70;99.90
19174;DHT22;9719;49.322;8.536;2023-03-17T01:58:29;8.70;99.90
19174;DHT22;9719;49.322;8.536;2023-03-17T02:03:31;8.60;99.90
19174;DHT22;9719;49.322;8.536;2023-03-17T02:08:35;8.60;99.90
19174;DHT22;9719;49.322;8.536;2023-03-17T02:13:37;8.60;99.90
19174;DHT22;9719;49.322;8.536;2023-03-17T02:18:41;8.60;99.90
19174;DHT22;9719;49.322;8.536;2023-03-17T02:23:45;8.60;99.90
19174;DHT22;9719;49.322;8.536;2023-03-17T02:28:47;8.60;99.90
19174;DHT22;9719;49.322;8.536;2023-03-17T02:33:49;8.50;99.90
19174;DHT22;9719;49.322;8.536;2023-03-17T02:38:53;8.40;99.90
19174;DHT22;9719;49.322;8.536;2023-03-17T02:43:54;8.30;99.90
19174;DHT22;9719;49.322;8.536;2023-03-17T02:48:57;8.20;99.90
19174;DHT22;9719;49.322;8.536;2023-03-17T02:54:00;8.00;99.90
19174;DHT22;9719;49.322;8.536;2023-03-17T02:59:02;7.90;99.90
19174;DHT22;9719;49.322;8.536;2023-03-17T03:04:04;7.80;99.90
19174;DHT22;9719;49.322;8.536;2023-03-17T03:09:08;7.70;99.90
19174;DHT22;9719;49.322;8.536;2023-03-17T03:14:11;7.60;99.90
19174;DHT22;9719;49.322;8.536;2023-03-17T03:19:13;7.50;99.90
19174;DHT22;9719;49.322;8.536;2023-03-17T03:24:17;7.30;99.90
19174;DHT22;9719;49.322;8.536;2023-03-17T03:29:18;7.20;99.90
19174;DHT22;9719;49.322;8.536;2023-03-17T03:34:20;7.10;99.90
19174;DHT22;9719;49.322;8.536;2023-03-17T03:39:24;7.00;99.90
19174;DHT22;9719;49.322;8.536;2023-03-17T03:44:25;7.00;99.90
19174;DHT22;9719;49.322;8.536;2023-03-17T03:49:27;6.90;99.90
19174;DHT22;9719;49.322;8.536;2023-03-17T03:54:31;6.80;99.90
19174;DHT22;9719;49.322;8.536;2023-03-17T03:59:32;6.70;99.90
19174;DHT22;9719;49.322;8.536;2023-03-17T04:04:34;6.70;99.90
19174;DHT22;9719;49.322;8.536;2023-03-17T04:09:38;6.60;99.90
19174;DHT22;9719;49.322;8.536;2023-03-17T04:14:39;6.60;99.90
19174;DHT22;9719;49.322;8.536;2023-03-17T04:19:41;6.60;99.90
19174;DHT22;9719;49.322;8.536;2023-03-17T04:24:45;6.60;99.90
19174;DHT22;9719;49.322;8.536;2023-03-17T04:29:46;6.60;99.90
19174;DHT22;9719;49.322;8.536;2023-03-17T04:34:49;6.60;99.90
19174;DHT22;9719;49.322;8.536;2023-03-17T04:39:52;6.60;99.90
19174;DHT22;9719;49.322;8.536;2023-03-17T04:44:55;6.60;99.90
19174;DHT22;9719;49.322;8.536;2023-03-17T04:49:57;6.60;99.90
19174;DHT22;9719;49.322;8.536;2023-03-17T04:55:00;6.60;99.90
19174;DHT22;9719;49.322;8.536;2023-03-17T05:00:03;6.60;99.90
19174;DHT22;9719;49.322;8.536;2023-03-17T05:05:06;6.60;99.90
19174;DHT22;9719;49.322;8.536;2023-03-17T05:10:10;6.60;99.90
19174;DHT22;9719;49.322;8.536;2023-03-17T05:15:13;6.60;99.90
19174;DHT22;9719;49.322;8.536;2023-03-17T05:20:15;6.60;99.90
19174;DHT22;9719;49.322;8.536;2023-03-17T05:25:18;6.50;99.90
19174;DHT22;9719;49.322;8.536;2023-03-17T05:30:20;6.50;99.90
19174;DHT22;9719;49.322;8.536;2023-03-17T05:35:22;6.50;99.90
19174;DHT22;9719;49.322;8.536;2023-03-17T05:40:25;6.50;99.90
19174;DHT22;9719;49.322;8.536;2023-03-17T05:45:27;6.50;99.90
19174;DHT22;9719;49.322;8.536;2023-03-17T05:50:29;6.40;99.90
19174;DHT22;9719;49.322;8.536;2023-03-17T05:55:33;6.40;99.90
19174;DHT22;9719;49.322;8.536;2023-03-17T06:00:35;6.30;99.90
19174;DHT22;9719;49.322;8.536;2023-03-17T06:05:37;6.30;99.90
19174;DHT22;9719;49.322;8.536;2023-03-17T06:10:41;6.30;99.90
19174;DHT22;9719;49.322;8.536;2023-03-17T06:15:43;6.30;99.90
19174;DHT22;9719;49.322;8.536;2023-03-17T06:20:45;6.30;99.90
19174;DHT22;9719;49.322;8.536;2023-03-17T06:25:48;6.40;99.90
19174;DHT22;9719;49.322;8.536;2023-03-17T06:30:50;6.50;99.90
19174;DHT22;9719;49.322;8.536;2023-03-17T06:41:50;6.70;99.90
19174;DHT22;9719;49.322;8.536;2023-03-17T06:46:52;6.90;99.90
19174;DHT22;9719;49.322;8.536;2023-03-17T06:51:54;7.10;99.90
19174;DHT22;9719;49.322;8.536;2023-03-17T06:56:57;7.50;99.90
19174;DHT22;9719;49.322;8.536;2023-03-17T07:01:59;7.90;99.90
19174;DHT22;9719;49.322;8.536;2023-03-17T07:07:00;8.30;99.90
19174;DHT22;9719;49.322;8.536;2023-03-17T07:12:04;8.70;99.90
19174;DHT22;9719;49.322;8.536;2023-03-17T07:17:06;9.20;99.90
19174;DHT22;9719;49.322;8.536;2023-03-17T07:22:10;9.70;99.90
19174;DHT22;9719;49.322;8.536;2023-03-17T07:27:14;10.10;99.90
19174;DHT22;9719;49.322;8.536;2023-03-17T07:32:16;10.40;99.90
19174;DHT22;9719;49.322;8.536;2023-03-17T07:37:18;10.70;99.90
19174;DHT22;9719;49.322;8.536;2023-03-17T07:42:22;10.80;99.90
19174;DHT22;9719;49.322;8.536;2023-03-17T07:47:24;11.00;99.90
19174;DHT22;9719;49.322;8.536;2023-03-17T07:52:26;11.30;99.90
19174;DHT22;9719;49.322;8.536;2023-03-17T07:57:29;11.50;99.90
19174;DHT22;9719;49.322;8.536;2023-03-17T08:02:31;11.70;99.90
19174;DHT22;9719;49.322;8.536;2023-03-17T08:07:33;11.60;99.90
19174;DHT22;9719;49.322;8.536;2023-03-17T08:12:38;11.60;99.90
19174;DHT22;9719;49.322;8.536;2023-03-17T08:17:41;11.60;99.90
19174;DHT22;9719;49.322;8.536;2023-03-17T08:22:42;11.70;99.90
19174;DHT22;9719;49.322;8.536;2023-03-17T08:27:47;12.00;99.90
19174;DHT22;9719;49.322;8.536;2023-03-17T08:32:49;12.20;99.90
19174;DHT22;9719;49.322;8.536;2023-03-17T08:37:51;12.10;99.90
19174;DHT22;9719;49.322;8.536;2023-03-17T08:42:54;12.00;99.90
19174;DHT22;9719;49.322;8.536;2023-03-17T08:47:57;12.00;99.90
19174;DHT22;9719;49.322;8.536;2023-03-17T08:52:58;12.10;99.90
19174;DHT22;9719;49.322;8.536;2023-03-17T08:58:02;12.30;99.90
19174;DHT22;9719;49.322;8.536;2023-03-17T09:03:04;12.90;99.90
19174;DHT22;9719;49.322;8.536;2023-03-17T09:08:06;13.60;99.90
19174;DHT22;9719;49.322;8.536;2023-03-17T09:13:09;14.50;99.90
19174;DHT22;9719;49.322;8.536;2023-03-17T09:18:11;15.20;99.90
19174;DHT22;9719;49.322;8.536;2023-03-17T09:23:14;15.90;99.90
19174;DHT22;9719;49.322;8.536;2023-03-17T09:28:17;16.80;99.90
19174;DHT22;9719;49.322;8.536;2023-03-17T09:33:19;17.40;98.40
19174;DHT22;9719;49.322;8.536;2023-03-17T09:38:21;18.30;99.10
19174;DHT22;9719;49.322;8.536;2023-03-17T09:43:30;20.00;94.30
19174;DHT22;9719;49.322;8.536;2023-03-17T09:48:40;21.50;90.90
19174;DHT22;9719;49.322;8.536;2023-03-17T09:53:49;23.30;87.90
19174;DHT22;9719;49.322;8.536;2023-03-17T09:58:57;24.90;86.50
19174;DHT22;9719;49.322;8.536;2023-03-17T10:04:00;26.20;80.60
19174;DHT22;9719;49.322;8.536;2023-03-17T10:09:15;27.70;81.20
19174;DHT22;9719;49.322;8.536;2023-03-17T10:14:30;29.10;68.20
19174;DHT22;9719;49.322;8.536;2023-03-17T10:19:39;30.10;62.90
19174;DHT22;9719;49.322;8.536;2023-03-17T10:24:45;32.20;69.10
19174;DHT22;9719;49.322;8.536;2023-03-17T10:29:49;34.70;66.30
19174;DHT22;9719;49.322;8.536;2023-03-17T10:34:51;35.50;61.80
19174;DHT22;9719;49.322;8.536;2023-03-17T10:39:55;35.40;60.00
19174;DHT22;9719;49.322;8.536;2023-03-17T10:45:10;35.60;58.40
19174;DHT22;9719;49.322;8.536;2023-03-17T10:50:21;35.80;53.60
19174;DHT22;9719;49.322;8.536;2023-03-17T10:55:27;36.10;49.20
19174;DHT22;9719;49.322;8.536;2023-03-17T11:00:33;35.70;54.50
19174;DHT22;9719;49.322;8.536;2023-03-17T11:05:36;35.70;54.50
19174;DHT22;9719;49.322;8.536;2023-03-17T11:10:39;36.90;56.40
19174;DHT22;9719;49.322;8.536;2023-03-17T11:15:47;37.80;54.10
19174;DHT22;9719;49.322;8.536;2023-03-17T11:20:53;37.30;50.30
19174;DHT22;9719;49.322;8.536;2023-03-17T11:26:04;35.90;52.60
19174;DHT22;9719;49.322;8.536;2023-03-17T11:31:13;34.50;52.10
19174;DHT22;9719;49.322;8.536;2023-03-17T11:36:39;33.10;53.20
19174;DHT22;9719;49.322;8.536;2023-03-17T11:41:51;32.80;53.10
19174;DHT22;9719;49.322;8.536;2023-03-17T11:46:59;32.50;54.90
19174;DHT22;9719;49.322;8.536;2023-03-17T11:52:10;33.70;56.60
19174;DHT22;9719;49.322;8.536;2023-03-17T11:57:17;35.50;54.70
19174;DHT22;9719;49.322;8.536;2023-03-17T12:02:28;34.80;51.60
19174;DHT22;9719;49.322;8.536;2023-03-17T12:07:35;32.80;52.10
19174;DHT22;9719;49.322;8.536;2023-03-17T12:12:45;31.10;56.40
19174;DHT22;9719;49.322;8.536;2023-03-17T12:17:52;29.80;57.00
19174;DHT22;9719;49.322;8.536;2023-03-17T12:23:00;28.80;57.60
19174;DHT22;9719;49.322;8.536;2023-03-17T12:28:09;28.20;57.70
19174;DHT22;9719;49.322;8.536;2023-03-17T12:33:20;27.80;62.10
19174;DHT22;9719;49.322;8.536;2023-03-17T12:38:26;27.60;60.90
19174;DHT22;9719;49.322;8.536;2023-03-17T12:43:47;27.70;61.60
19174;DHT22;9719;49.322;8.536;2023-03-17T12:49:16;27.90;58.60
19174;DHT22;9719;49.322;8.536;2023-03-17T12:54:26;28.10;60.00
19174;DHT22;9719;49.322;8.536;2023-03-17T12:59:29;28.00;63.50
19174;DHT22;9719;49.322;8.536;2023-03-17T13:04:35;27.60;64.60
19174;DHT22;9719;49.322;8.536;2023-03-17T13:09:46;27.30;63.40
19174;DHT22;9719;49.322;8.536;2023-03-17T13:14:50;26.90;61.20
19174;DHT22;9719;49.322;8.536;2023-03-17T13:19:58;26.50;64.40
19174;DHT22;9719;49.322;8.536;2023-03-17T13:25:17;26.30;63.00
19174;DHT22;9719;49.322;8.536;2023-03-17T13:30:54;25.90;62.10
19174;DHT22;9719;49.322;8.536;2023-03-17T13:36:04;25.70;64.40
19174;DHT22;9719;49.322;8.536;2023-03-17T13:41:37;25.60;66.00
19174;DHT22;9719;49.322;8.536;2023-03-17T13:46:45;25.60;62.50
19174;DHT22;9719;49.322;8.536;2023-03-17T13:51:52;25.80;69.20
19174;DHT22;9719;49.322;8.536;2023-03-17T13:56:56;25.80;66.30
19174;DHT22;9719;49.322;8.536;2023-03-17T14:02:02;25.40;70.50
19174;DHT22;9719;49.322;8.536;2023-03-17T14:07:14;24.80;69.70
19174;DHT22;9719;49.322;8.536;2023-03-17T14:12:22;24.50;69.10
19174;DHT22;9719;49.322;8.536;2023-03-17T14:17:29;24.00;68.60
19174;DHT22;9719;49.322;8.536;2023-03-17T14:22:39;23.70;72.80
19174;DHT22;9719;49.322;8.536;2023-03-17T14:27:43;23.40;72.50
19174;DHT22;9719;49.322;8.536;2023-03-17T14:32:47;23.00;74.40
19174;DHT22;9719;49.322;8.536;2023-03-17T14:37:52;22.60;76.10
19174;DHT22;9719;49.322;8.536;2023-03-17T14:42:54;22.30;77.80
19174;DHT22;9719;49.322;8.536;2023-03-17T14:47:56;22.00;79.30
19174;DHT22;9719;49.322;8.536;2023-03-17T14:52:59;21.60;81.00
19174;DHT22;9719;49.322;8.536;2023-03-17T14:58:06;21.40;82.10
19174;DHT22;9719;49.322;8.536;2023-03-17T15:03:18;21.20;81.20
19174;DHT22;9719;49.322;8.536;2023-03-17T15:08:39;21.10;82.60
19174;DHT22;9719;49.322;8.536;2023-03-17T15:13:42;21.00;81.00
19174;DHT22;9719;49.322;8.536;2023-03-17T15:18:44;20.80;85.50
19174;DHT22;9719;49.322;8.536;2023-03-17T15:23:47;20.60;85.10
19174;DHT22;9719;49.322;8.536;2023-03-17T15:28:49;20.50;86.00
19174;DHT22;9719;49.322;8.536;2023-03-17T15:33:51;20.40;89.30
19174;DHT22;9719;49.322;8.536;2023-03-17T15:38:54;20.30;89.20
19174;DHT22;9719;49.322;8.536;2023-03-17T15:43:56;20.20;90.30
19174;DHT22;9719;49.322;8.536;2023-03-17T15:48:58;20.00;90.70
19174;DHT22;9719;49.322;8.536;2023-03-17T15:54:02;19.90;92.40
19174;DHT22;9719;49.322;8.536;2023-03-17T15:59:04;19.70;92.80
19174;DHT22;9719;49.322;8.536;2023-03-17T16:04:06;19.50;93.30
19174;DHT22;9719;49.322;8.536;2023-03-17T16:09:14;19.30;93.60
19174;DHT22;9719;49.322;8.536;2023-03-17T16:14:16;19.20;93.00
19174;DHT22;9719;49.322;8.536;2023-03-17T16:19:20;19.00;95.20
19174;DHT22;9719;49.322;8.536;2023-03-17T16:24:25;18.80;96.40
19174;DHT22;9719;49.322;8.536;2023-03-17T16:29:27;18.40;95.40
19174;DHT22;9719;49.322;8.536;2023-03-17T16:34:30;18.20;99.10
19174;DHT22;9719;49.322;8.536;2023-03-17T16:39:33;17.80;98.30
19174;DHT22;9719;49.322;8.536;2023-03-17T16:44:35;17.60;99.90
19174;DHT22;9719;49.322;8.536;2023-03-17T16:49:37;17.30;99.90
19174;DHT22;9719;49.322;8.536;2023-03-17T16:54:40;17.10;99.90
19174;DHT22;9719;49.322;8.536;2023-03-17T16:59:42;16.90;99.90
19174;DHT22;9719;49.322;8.536;2023-03-17T17:04:44;16.70;99.90
19174;DHT22;9719;49.322;8.536;2023-03-17T17:09:47;16.50;99.90
19174;DHT22;9719;49.322;8.536;2023-03-17T17:14:49;16.30;99.90
19174;DHT22;9719;49.322;8.536;2023-03-17T17:19:50;16.10;99.90
19174;DHT22;9719;49.322;8.536;2023-03-17T17:24:54;15.90;99.90
19174;DHT22;9719;49.322;8.536;2023-03-17T17:29:56;15.70;99.90
19174;DHT22;9719;49.322;8.536;2023-03-17T17:34:58;15.60;99.90
19174;DHT22;9719;49.322;8.536;2023-03-17T17:40:02;15.30;99.90
19174;DHT22;9719;49.322;8.536;2023-03-17T17:45:06;15.10;99.90
19174;DHT22;9719;49.322;8.536;2023-03-17T17:50:11;15.00;99.90
19174;DHT22;9719;49.322;8.536;2023-03-17T17:55:18;14.80;99.90
19174;DHT22;9719;49.322;8.536;2023-03-17T18:00:20;14.70;99.90
19174;DHT22;9719;49.322;8.536;2023-03-17T18:05:23;14.50;99.90
19174;DHT22;9719;49.322;8.536;2023-03-17T18:10:27;14.40;99.90
19174;DHT22;9719;49.322;8.536;2023-03-17T18:15:29;14.30;99.90
19174;DHT22;9719;49.322;8.536;2023-03-17T18:20:31;14.20;99.90
19174;DHT22;9719;49.322;8.536;2023-03-17T18:25:34;14.10;99.90
19174;DHT22;9719;49.322;8.536;2023-03-17T18:30:36;14.00;99.90
19174;DHT22;9719;49.322;8.536;2023-03-17T18:35:39;13.90;99.90
19174;DHT22;9719;49.322;8.536;2023-03-17T18:40:42;13.90;99.90
19174;DHT22;9719;49.322;8.536;2023-03-17T18:45:44;13.80;99.90
19174;DHT22;9719;49.322;8.536;2023-03-17T18:50:46;13.80;99.90
19174;DHT22;9719;49.322;8.536;2023-03-17T18:55:49;13.80;99.90
19174;DHT22;9719;49.322;8.536;2023-03-17T19:00:51;13.70;99.90
19174;DHT22;9719;49.322;8.536;2023-03-17T19:05:54;13.70;99.90
19174;DHT22;9719;49.322;8.536;2023-03-17T19:10:57;13.70;99.90
19174;DHT22;9719;49.322;8.536;2023-03-17T19:15:59;13.50;99.90
19174;DHT22;9719;49.322;8.536;2023-03-17T19:21:01;13.40;99.90
19174;DHT22;9719;49.322;8.536;2023-03-17T19:26:05;13.30;99.90
19174;DHT22;9719;49.322;8.536;2023-03-17T19:31:07;13.30;99.90
19174;DHT22;9719;49.322;8.536;2023-03-17T19:36:10;13.10;99.90
19174;DHT22;9719;49.322;8.536;2023-03-17T19:41:14;13.00;99.90
19174;DHT22;9719;49.322;8.536;2023-03-17T19:46:15;12.90;99.90
19174;DHT22;9719;49.322;8.536;2023-03-17T19:51:17;12.90;99.90
19174;DHT22;9719;49.322;8.536;2023-03-17T19:56:21;12.80;99.90
19174;DHT22;9719;49.322;8.536;2023-03-17T20:01:23;12.80;99.90
19174;DHT22;9719;49.322;8.536;2023-03-17T20:06:25;12.70;99.90
19174;DHT22;9719;49.322;8.536;2023-03-17T20:11:29;12.70;99.90
19174;DHT22;9719;49.322;8.536;2023-03-17T20:16:33;12.60;99.90
19174;DHT22;9719;49.322;8.536;2023-03-17T20:21:38;12.50;99.90
19174;DHT22;9719;49.322;8.536;2023-03-17T20:26:42;12.50;99.90
19174;DHT22;9719;49.322;8.536;2023-03-17T20:31:44;12.50;99.90
19174;DHT22;9719;49.322;8.536;2023-03-17T20:36:46;12.40;99.90
19174;DHT22;9719;49.322;8.536;2023-03-17T20:41:49;12.30;99.90
19174;DHT22;9719;49.322;8.536;2023-03-17T20:46:51;12.20;99.90
19174;DHT22;9719;49.322;8.536;2023-03-17T20:51:54;12.10;99.90
19174;DHT22;9719;49.322;8.536;2023-03-17T20:56:57;12.10;99.90
19174;DHT22;9719;49.322;8.536;2023-03-17T21:02:00;12.10;99.90
19174;DHT22;9719;49.322;8.536;2023-03-17T21:07:02;12.10;99.90
19174;DHT22;9719;49.322;8.536;2023-03-17T21:12:06;12.10;99.90
19174;DHT22;9719;49.322;8.536;2023-03-17T21:17:08;12.10;99.90
19174;DHT22;9719;49.322;8.536;2023-03-17T21:22:10;12.10;99.90
19174;DHT22;9719;49.322;8.536;2023-03-17T21:27:13;12.10;99.90
19174;DHT22;9719;49.322;8.536;2023-03-17T21:32:15;12.00;99.90
19174;DHT22;9719;49.322;8.536;2023-03-17T21:37:16;12.00;99.90
19174;DHT22;9719;49.322;8.536;2023-03-17T21:42:20;11.90;99.90
19174;DHT22;9719;49.322;8.536;2023-03-17T21:47:21;12.00;99.90
19174;DHT22;9719;49.322;8.536;2023-03-17T21:52:23;12.00;99.90
19174;DHT22;9719;49.322;8.536;2023-03-17T21:57:26;12.10;99.90
19174;DHT22;9719;49.322;8.536;2023-03-17T22:02:29;12.10;99.90
19174;DHT22;9719;49.322;8.536;2023-03-17T22:07:30;12.20;99.90
19174;DHT22;9719;49.322;8.536;2023-03-17T22:12:34;12.30;99.90
19174;DHT22;9719;49.322;8.536;2023-03-17T22:17:36;12.30;99.90
19174;DHT22;9719;49.322;8.536;2023-03-17T22:22:39;12.30;99.90
19174;DHT22;9719;49.322;8.536;2023-03-17T22:27:42;12.30;99.90
19174;DHT22;9719;49.322;8.536;2023-03-17T22:32:44;12.30;99.90
19174;DHT22;9719;49.322;8.536;2023-03-17T22:37:45;12.30;99.90
19174;DHT22;9719;49.322;8.536;2023-03-17T22:42:49;12.30;99.90
19174;DHT22;9719;49.322;8.536;2023-03-17T22:47:51;12.30;99.90
19174;DHT22;9719;49.322;8.536;2023-03-17T22:52:54;12.20;99.90
19174;DHT22;9719;49.322;8.536;2023-03-17T22:57:58;12.20;99.90
19174;DHT22;9719;49.322;8.536;2023-03-17T23:02:59;12.10;99.90
19174;DHT22;9719;49.322;8.536;2023-03-17T23:08:01;12.00;99.90
19174;DHT22;9719;49.322;8.536;2023-03-17T23:13:05;11.90;99.90
19174;DHT22;9719;49.322;8.536;2023-03-17T23:18:07;11.90;99.90
19174;DHT22;9719;49.322;8.536;2023-03-17T23:23:12;11.80;99.90
19174;DHT22;9719;49.322;8.536;2023-03-17T23:28:18;11.70;99.90
19174;DHT22;9719;49.322;8.536;2023-03-17T23:33:20;11.80;99.90
19174;DHT22;9719;49.322;8.536;2023-03-17T23:38:23;11.80;99.90
19174;DHT22;9719;49.322;8.536;2023-03-17T23:43:29;11.80;99.90
19174;DHT22;9719;49.322;8.536;2023-03-17T23:48:32;11.70;99.90
19174;DHT22;9719;49.322;8.536;2023-03-17T23:53:34;11.70;99.90
19174;DHT22;9719;49.322;8.536;2023-03-17T23:58:37;11.70;99.90
